Time;durP1;ratioP1;P1;durP2;ratioP2;P2;SDS_P1;SDS_P2;PMS_P1;PMS_P2;Temp;Humidity;BMP_temperature;BMP_pressure;BME280_temperature;BME280_humidity;BME280_pressure;Samples;Min_cycle;Max_cycle;Signal;HPM_P1;HPM_P2
2022/02/23 00:00:57;;;;;;;8.96;5.46;;;;;;;;;;360594;147;864296;-58
2022/02/23 00:01:58;;;;;;;7.94;5.31;;;;;;;;;;362954;147;863935;-58
2022/02/23 00:03:00;;;;;;;10.76;5.63;;;;;;;;;;363851;146;857963;-57
2022/02/23 00:04:01;;;;;;;17.63;9.46;;;;;;;;;;361298;146;857587;-57
2022/02/23 00:05:03;;;;;;;20.12;10.25;;;;;;;;;;352178;152;856608;-57
2022/02/23 00:06:05;;;;;;;22.39;11.67;;;;;;;;;;362234;146;863670;-58
2022/02/23 00:07:07;;;;;;;24.04;12.22;;;;;;;;;;363957;146;856613;-58
2022/02/23 00:08:08;;;;;;;20.95;9.81;;;;;;;;;;361950;147;856702;-57
2022/02/23 00:09:10;;;;;;;20.84;9.72;;;;;;;;;;363016;147;863814;-58
2022/02/23 00:10:12;;;;;;;22.39;9.71;;;;;;;;;;363037;146;858958;-56
2022/02/23 00:11:15;;;;;;;19.71;9.42;;;;;;;;;;361854;146;856557;-57
2022/02/23 00:12:17;;;;;;;19.39;9.81;;;;;;;;;;361828;147;863782;-57
2022/02/23 00:13:19;;;;;;;19.85;10.34;;;;;;;;;;361130;147;856128;-57
2022/02/23 00:14:20;;;;;;;17.31;8.99;;;;;;;;;;362435;146;864330;-58
2022/02/23 00:15:22;;;;;;;19.10;9.81;;;;;;;;;;362076;146;856755;-58
2022/02/23 00:16:24;;;;;;;17.95;9.45;;;;;;;;;;361635;147;859203;-57
2022/02/23 00:17:25;;;;;;;16.04;9.14;;;;;;;;;;362768;147;856211;-58
2022/02/23 00:18:27;;;;;;;17.97;9.84;;;;;;;;;;362937;146;863948;-58
2022/02/23 00:19:28;;;;;;;18.08;8.52;;;;;;;;;;362628;147;864152;-57
2022/02/23 00:20:30;;;;;;;18.97;9.92;;;;;;;;;;363101;146;856258;-57
2022/02/23 00:21:33;;;;;;;17.57;9.21;;;;;;;;;;360970;146;864010;-59
2022/02/23 00:22:34;;;;;;;16.47;8.91;;;;;;;;;;360932;147;857077;-58
2022/02/23 00:23:36;;;;;;;17.46;8.91;;;;;;;;;;362732;147;864012;-58
2022/02/23 00:24:37;;;;;;;18.53;9.48;;;;;;;;;;362446;146;863992;-57
2022/02/23 00:25:39;;;;;;;17.29;8.49;;;;;;;;;;362810;146;864076;-57
2022/02/23 00:26:41;;;;;;;15.70;8.66;;;;;;;;;;364059;147;863924;-58
2022/02/23 00:27:43;;;;;;;19.49;8.56;;;;;;;;;;361681;147;856727;-58
2022/02/23 00:28:44;;;;;;;15.84;8.52;;;;;;;;;;361021;146;856538;-58
2022/02/23 00:29:47;;;;;;;14.26;8.29;;;;;;;;;;358518;147;856120;-58
2022/02/23 00:30:49;;;;;;;18.47;8.61;;;;;;;;;;358323;148;856398;-56
2022/02/23 00:31:50;;;;;;;16.94;8.60;;;;;;;;;;359854;146;856386;-56
2022/02/23 00:32:52;;;;;;;17.77;8.16;;;;;;;;;;358573;147;860816;-58
2022/02/23 00:33:53;;;;;;;13.79;7.83;;;;;;;;;;357904;147;863963;-57
2022/02/23 00:34:55;;;;;;;17.10;8.44;;;;;;;;;;359548;147;856296;-58
2022/02/23 00:35:56;;;;;;;17.99;8.08;;;;;;;;;;359365;147;856070;-58
2022/02/23 00:36:58;;;;;;;14.87;8.66;;;;;;;;;;358944;147;864021;-58
2022/02/23 00:38:00;;;;;;;14.89;8.20;;;;;;;;;;358123;147;856856;-57
2022/02/23 00:39:01;;;;;;;14.01;7.73;;;;;;;;;;358297;147;856789;-58
2022/02/23 00:40:03;;;;;;;13.59;7.24;;;;;;;;;;358606;147;864001;-58
2022/02/23 00:41:05;;;;;;;13.26;8.01;;;;;;;;;;356480;147;863965;-59
2022/02/23 00:42:06;;;;;;;16.19;7.63;;;;;;;;;;357158;147;856638;-57
2022/02/23 00:43:08;;;;;;;13.63;7.61;;;;;;;;;;358300;147;856551;-58
2022/02/23 00:44:09;;;;;;;15.54;7.59;;;;;;;;;;357748;147;863881;-57
2022/02/23 00:45:11;;;;;;;12.89;6.68;;;;;;;;;;359985;147;856332;-58
2022/02/23 00:46:13;;;;;;;14.34;7.45;;;;;;;;;;358064;147;856586;-58
2022/02/23 00:47:14;;;;;;;11.50;7.06;;;;;;;;;;358128;147;856884;-58
2022/02/23 00:48:16;;;;;;;13.45;7.49;;;;;;;;;;358036;147;856711;-58
2022/02/23 00:49:17;;;;;;;15.98;7.27;;;;;;;;;;358122;148;856483;-58
2022/02/23 00:50:19;;;;;;;12.51;6.92;;;;;;;;;;358670;147;856653;-58
2022/02/23 00:51:21;;;;;;;13.14;7.60;;;;;;;;;;357894;146;856047;-58
2022/02/23 00:52:23;;;;;;;14.52;7.43;;;;;;;;;;357691;146;856576;-58
2022/02/23 00:53:24;;;;;;;15.57;7.45;;;;;;;;;;358150;147;856199;-58
2022/02/23 00:54:26;;;;;;;12.97;7.37;;;;;;;;;;359711;146;856213;-58
2022/02/23 00:55:27;;;;;;;10.49;6.32;;;;;;;;;;359499;146;856932;-58
2022/02/23 00:56:29;;;;;;;13.22;7.39;;;;;;;;;;359010;147;856275;-58
2022/02/23 00:57:30;;;;;;;13.01;7.77;;;;;;;;;;357605;147;863945;-58
2022/02/23 00:58:32;;;;;;;13.02;7.09;;;;;;;;;;360767;146;858145;-58
2022/02/23 00:59:33;;;;;;;12.59;7.61;;;;;;;;;;357369;147;862388;-59
2022/02/23 01:00:35;;;;;;;12.59;5.76;;;;;;;;;;358726;147;856267;-58
2022/02/23 01:01:37;;;;;;;12.81;6.84;;;;;;;;;;359355;147;864719;-58
2022/02/23 01:02:40;;;;;;;15.14;7.27;;;;;;;;;;359061;147;857283;-58
2022/02/23 01:03:42;;;;;;;12.37;6.91;;;;;;;;;;359305;147;864736;-58
2022/02/23 01:04:43;;;;;;;15.17;6.38;;;;;;;;;;359427;147;856365;-58
2022/02/23 01:05:45;;;;;;;15.77;7.55;;;;;;;;;;359947;147;858931;-58
2022/02/23 01:06:46;;;;;;;14.54;7.46;;;;;;;;;;358111;147;856118;-57
2022/02/23 01:07:48;;;;;;;13.76;7.88;;;;;;;;;;358373;147;856973;-57
2022/02/23 01:08:49;;;;;;;11.01;6.61;;;;;;;;;;360036;146;856177;-57
2022/02/23 01:09:50;;;;;;;12.13;6.46;;;;;;;;;;357643;147;856570;-57
2022/02/23 01:10:52;;;;;;;13.23;7.08;;;;;;;;;;356479;146;856091;-58
2022/02/23 01:11:54;;;;;;;12.48;6.79;;;;;;;;;;358841;146;863971;-58
2022/02/23 01:12:55;;;;;;;12.85;7.64;;;;;;;;;;359119;147;863868;-58
2022/02/23 01:13:57;;;;;;;12.69;7.71;;;;;;;;;;359191;146;857279;-58
2022/02/23 01:14:59;;;;;;;11.26;6.32;;;;;;;;;;359361;147;856531;-56
2022/02/23 01:16:00;;;;;;;15.32;6.87;;;;;;;;;;359272;147;856851;-58
2022/02/23 01:17:02;;;;;;;12.94;7.11;;;;;;;;;;359213;147;856940;-58
2022/02/23 01:18:04;;;;;;;11.45;6.31;;;;;;;;;;357833;147;856535;-58
2022/02/23 01:19:06;;;;;;;14.21;6.53;;;;;;;;;;358859;148;856594;-58
2022/02/23 01:20:08;;;;;;;10.53;6.38;;;;;;;;;;358985;146;856020;-58
2022/02/23 01:21:10;;;;;;;11.25;6.35;;;;;;;;;;359124;146;856559;-58
2022/02/23 01:22:12;;;;;;;8.76;5.63;;;;;;;;;;359074;147;856291;-58
2022/02/23 01:23:13;;;;;;;12.51;6.45;;;;;;;;;;359833;147;856407;-58
2022/02/23 01:24:15;;;;;;;10.40;5.92;;;;;;;;;;360216;146;856081;-58
2022/02/23 01:25:16;;;;;;;8.80;5.77;;;;;;;;;;358307;148;856046;-57
2022/02/23 01:26:18;;;;;;;13.28;5.84;;;;;;;;;;359953;147;863744;-58
2022/02/23 01:27:20;;;;;;;10.76;6.77;;;;;;;;;;358490;147;863815;-58
2022/02/23 01:28:21;;;;;;;9.26;5.83;;;;;;;;;;358515;147;864255;-60
2022/02/23 01:29:23;;;;;;;9.73;5.94;;;;;;;;;;357308;147;857550;-58
2022/02/23 01:30:25;;;;;;;9.05;5.30;;;;;;;;;;358809;147;856208;-58
2022/02/23 01:31:26;;;;;;;12.28;5.86;;;;;;;;;;357962;147;856693;-58
2022/02/23 01:32:28;;;;;;;11.04;6.14;;;;;;;;;;358229;147;858711;-57
2022/02/23 01:33:29;;;;;;;9.76;5.74;;;;;;;;;;358758;147;864034;-58
2022/02/23 01:34:31;;;;;;;10.77;5.51;;;;;;;;;;357209;147;856423;-57
2022/02/23 01:35:32;;;;;;;11.78;5.71;;;;;;;;;;357971;148;864610;-58
2022/02/23 01:36:34;;;;;;;13.37;6.09;;;;;;;;;;358634;147;856332;-56
2022/02/23 01:37:35;;;;;;;11.22;5.65;;;;;;;;;;359024;147;864083;-58
2022/02/23 01:38:37;;;;;;;8.13;5.74;;;;;;;;;;359734;147;864005;-58
2022/02/23 01:39:38;;;;;;;8.76;4.41;;;;;;;;;;359063;148;856360;-58
2022/02/23 01:40:40;;;;;;;10.54;5.68;;;;;;;;;;356562;147;856397;-57
2022/02/23 01:41:42;;;;;;;11.17;5.44;;;;;;;;;;358440;147;856799;-58
2022/02/23 01:42:44;;;;;;;9.45;5.07;;;;;;;;;;356822;148;856816;-58
2022/02/23 01:43:46;;;;;;;6.41;4.06;;;;;;;;;;359241;148;856612;-58
2022/02/23 01:44:48;;;;;;;10.30;5.29;;;;;;;;;;357438;147;862058;-58
2022/02/23 01:45:49;;;;;;;9.89;5.24;;;;;;;;;;357302;147;856530;-58
2022/02/23 01:46:51;;;;;;;10.08;5.56;;;;;;;;;;356310;147;856056;-57
2022/02/23 01:47:52;;;;;;;9.73;5.59;;;;;;;;;;357290;148;858615;-58
2022/02/23 01:48:54;;;;;;;7.42;5.22;;;;;;;;;;358294;147;856101;-58
2022/02/23 01:49:56;;;;;;;7.27;4.88;;;;;;;;;;358354;147;864280;-58
2022/02/23 01:50:57;;;;;;;8.55;5.13;;;;;;;;;;357599;148;859321;-58
2022/02/23 01:51:59;;;;;;;9.15;4.92;;;;;;;;;;358832;147;856294;-57
2022/02/23 01:53:01;;;;;;;8.66;5.55;;;;;;;;;;359072;147;856285;-57
2022/02/23 01:54:02;;;;;;;9.97;5.30;;;;;;;;;;358126;148;858095;-58
2022/02/23 01:55:04;;;;;;;11.15;5.29;;;;;;;;;;357670;148;864264;-58
2022/02/23 01:56:06;;;;;;;11.21;5.15;;;;;;;;;;358615;147;857938;-58
2022/02/23 01:57:08;;;;;;;11.43;5.06;;;;;;;;;;358437;148;856771;-58
2022/02/23 01:58:11;;;;;;;9.70;5.31;;;;;;;;;;357160;147;856543;-58
2022/02/23 01:59:12;;;;;;;8.61;5.09;;;;;;;;;;357508;147;859171;-59
2022/02/23 02:00:16;;;;;;;8.37;4.91;;;;;;;;;;358367;147;856268;-58
2022/02/23 02:01:18;;;;;;;7.88;5.53;;;;;;;;;;358531;147;856410;-58
2022/02/23 02:02:24;;;;;;;8.79;5.24;;;;;;;;;;357770;147;856750;-58
2022/02/23 02:03:26;;;;;;;8.63;4.97;;;;;;;;;;357887;147;856770;-58
2022/02/23 02:04:27;;;;;;;12.67;5.56;;;;;;;;;;357723;148;857118;-58
2022/02/23 02:05:29;;;;;;;7.81;4.73;;;;;;;;;;351077;151;863963;-58
2022/02/23 02:06:30;;;;;;;7.81;4.89;;;;;;;;;;345149;153;856305;-57
2022/02/23 02:07:32;;;;;;;8.89;4.98;;;;;;;;;;343504;154;858879;-58
2022/02/23 02:08:33;;;;;;;9.66;5.02;;;;;;;;;;349804;151;856423;-58
2022/02/23 02:09:35;;;;;;;7.46;4.84;;;;;;;;;;348622;151;864123;-57
2022/02/23 02:10:36;;;;;;;8.51;4.89;;;;;;;;;;349596;151;863925;-58
2022/02/23 02:11:38;;;;;;;9.06;5.07;;;;;;;;;;348608;151;858165;-58
2022/02/23 02:12:41;;;;;;;7.56;5.24;;;;;;;;;;347116;151;864236;-57
2022/02/23 02:13:42;;;;;;;7.87;5.09;;;;;;;;;;347881;152;856410;-58
2022/02/23 02:14:44;;;;;;;8.68;5.16;;;;;;;;;;348783;152;864429;-58
2022/02/23 02:15:45;;;;;;;7.81;4.81;;;;;;;;;;347608;152;856515;-58
2022/02/23 02:16:47;;;;;;;7.16;4.94;;;;;;;;;;348157;151;856296;-58
2022/02/23 02:17:48;;;;;;;10.70;5.26;;;;;;;;;;348595;152;864106;-58
2022/02/23 02:18:50;;;;;;;8.30;4.58;;;;;;;;;;347584;152;863896;-58
2022/02/23 02:19:51;;;;;;;9.70;5.19;;;;;;;;;;347933;151;863847;-58
2022/02/23 02:20:53;;;;;;;8.89;4.94;;;;;;;;;;346241;151;864516;-58
2022/02/23 02:21:55;;;;;;;9.29;5.08;;;;;;;;;;348257;151;863777;-58
2022/02/23 02:22:57;;;;;;;9.13;4.80;;;;;;;;;;346715;152;858663;-58
2022/02/23 02:23:59;;;;;;;9.21;5.36;;;;;;;;;;347364;151;857131;-57
2022/02/23 02:25:00;;;;;;;10.11;5.46;;;;;;;;;;347813;151;856971;-58
2022/02/23 02:26:02;;;;;;;8.54;4.83;;;;;;;;;;348671;151;857361;-58
2022/02/23 02:27:04;;;;;;;12.28;5.42;;;;;;;;;;347568;151;863821;-58
2022/02/23 02:28:06;;;;;;;7.63;4.97;;;;;;;;;;347708;151;864313;-57
2022/02/23 02:29:07;;;;;;;7.68;5.40;;;;;;;;;;349176;151;857184;-59
2022/02/23 02:30:10;;;;;;;9.67;5.34;;;;;;;;;;348602;152;856426;-58
2022/02/23 02:31:11;;;;;;;10.04;5.24;;;;;;;;;;349612;151;856677;-58
2022/02/23 02:32:14;;;;;;;8.77;5.04;;;;;;;;;;348019;151;863969;-58
2022/02/23 02:33:16;;;;;;;10.03;4.98;;;;;;;;;;347589;152;856295;-58
2022/02/23 02:34:21;;;;;;;9.19;5.04;;;;;;;;;;347938;153;856699;-58
2022/02/23 02:35:22;;;;;;;9.06;5.32;;;;;;;;;;347003;152;863986;-57
2022/02/23 02:36:24;;;;;;;11.45;5.63;;;;;;;;;;348246;152;856576;-58
2022/02/23 02:37:25;;;;;;;8.74;5.41;;;;;;;;;;346885;153;856036;-58
2022/02/23 02:38:27;;;;;;;7.61;4.93;;;;;;;;;;347409;151;856756;-58
2022/02/23 02:39:29;;;;;;;8.89;5.13;;;;;;;;;;348993;152;863987;-58
2022/02/23 02:40:31;;;;;;;9.69;5.57;;;;;;;;;;349456;152;856393;-58
2022/02/23 02:41:34;;;;;;;7.99;5.04;;;;;;;;;;348834;153;856577;-58
2022/02/23 02:42:36;;;;;;;12.73;5.35;;;;;;;;;;347883;151;856454;-58
2022/02/23 02:43:38;;;;;;;8.31;5.24;;;;;;;;;;347914;152;856631;-58
2022/02/23 02:44:39;;;;;;;8.17;5.30;;;;;;;;;;349010;153;856577;-58
2022/02/23 02:45:41;;;;;;;7.95;4.84;;;;;;;;;;348478;151;863937;-58
2022/02/23 02:46:42;;;;;;;9.32;5.50;;;;;;;;;;349495;152;863906;-59
2022/02/23 02:47:44;;;;;;;8.86;4.19;;;;;;;;;;348599;153;864078;-58
2022/02/23 02:48:45;;;;;;;9.21;4.64;;;;;;;;;;347593;152;863686;-58
2022/02/23 02:49:47;;;;;;;8.77;4.34;;;;;;;;;;347914;151;857194;-58
2022/02/23 02:50:49;;;;;;;7.81;4.56;;;;;;;;;;348966;151;863721;-58
2022/02/23 02:51:50;;;;;;;8.16;5.03;;;;;;;;;;347961;152;863613;-58
2022/02/23 02:52:52;;;;;;;10.04;5.06;;;;;;;;;;348411;151;863938;-58
2022/02/23 02:53:53;;;;;;;8.33;5.19;;;;;;;;;;348212;151;856220;-56
2022/02/23 02:54:55;;;;;;;7.74;5.03;;;;;;;;;;347324;151;856023;-57
2022/02/23 02:55:56;;;;;;;8.88;4.58;;;;;;;;;;348736;152;856618;-57
2022/02/23 02:56:58;;;;;;;6.48;3.94;;;;;;;;;;348098;151;863656;-57
2022/02/23 02:57:59;;;;;;;8.08;4.02;;;;;;;;;;348235;151;863990;-57
2022/02/23 02:59:01;;;;;;;7.74;3.87;;;;;;;;;;348547;153;863854;-57
2022/02/23 03:00:04;;;;;;;6.45;3.61;;;;;;;;;;348932;153;857282;-58
2022/02/23 03:01:05;;;;;;;8.73;3.77;;;;;;;;;;348098;151;857212;-57
2022/02/23 03:02:07;;;;;;;7.40;3.81;;;;;;;;;;348662;151;856133;-57
2022/02/23 03:03:08;;;;;;;6.28;3.50;;;;;;;;;;347688;153;864124;-56
2022/02/23 03:04:10;;;;;;;6.16;3.51;;;;;;;;;;346818;150;864225;-58
2022/02/23 03:05:12;;;;;;;7.86;3.68;;;;;;;;;;350601;151;864351;-57
2022/02/23 03:06:14;;;;;;;5.56;3.56;;;;;;;;;;351499;151;864477;-56
2022/02/23 03:07:16;;;;;;;6.39;3.55;;;;;;;;;;351621;149;856163;-58
2022/02/23 03:08:17;;;;;;;4.00;2.39;;;;;;;;;;349058;150;856427;-57
2022/02/23 03:09:19;;;;;;;7.99;3.39;;;;;;;;;;348435;151;863763;-57
2022/02/23 03:10:20;;;;;;;4.86;2.86;;;;;;;;;;349818;152;863726;-57
2022/02/23 03:11:22;;;;;;;5.46;2.86;;;;;;;;;;349155;151;863744;-58
2022/02/23 03:12:24;;;;;;;6.86;2.84;;;;;;;;;;349399;151;863770;-57
2022/02/23 03:13:26;;;;;;;5.03;2.29;;;;;;;;;;348375;152;863703;-57
2022/02/23 03:14:27;;;;;;;6.38;2.90;;;;;;;;;;349017;151;855992;-57
2022/02/23 03:15:29;;;;;;;6.19;3.28;;;;;;;;;;348915;151;863922;-58
2022/02/23 03:16:30;;;;;;;6.04;2.65;;;;;;;;;;349741;151;857059;-57
2022/02/23 03:17:32;;;;;;;5.11;2.43;;;;;;;;;;348065;153;863703;-58
2022/02/23 03:18:33;;;;;;;2.23;1.31;;;;;;;;;;350140;151;856769;-58
2022/02/23 03:19:35;;;;;;;2.82;2.11;;;;;;;;;;348574;151;856380;-58
2022/02/23 03:20:36;;;;;;;3.86;1.83;;;;;;;;;;349750;153;856706;-58
2022/02/23 03:21:39;;;;;;;2.80;1.55;;;;;;;;;;348633;153;863844;-58
2022/02/23 03:22:41;;;;;;;4.67;2.10;;;;;;;;;;349063;152;856228;-58
2022/02/23 03:23:42;;;;;;;4.91;2.26;;;;;;;;;;348716;153;863839;-58
2022/02/23 03:24:44;;;;;;;4.80;2.29;;;;;;;;;;348511;152;857157;-56
2022/02/23 03:25:45;;;;;;;4.34;2.16;;;;;;;;;;349199;151;856938;-58
2022/02/23 03:26:47;;;;;;;3.50;1.77;;;;;;;;;;347171;151;856617;-57
2022/02/23 03:27:49;;;;;;;5.43;1.61;;;;;;;;;;347989;153;864230;-57
2022/02/23 03:28:51;;;;;;;3.86;1.93;;;;;;;;;;348958;152;856115;-57
2022/02/23 03:29:52;;;;;;;2.59;1.76;;;;;;;;;;347951;151;856614;-57
2022/02/23 03:30:54;;;;;;;5.10;1.85;;;;;;;;;;352102;150;858163;-57
2022/02/23 03:31:55;;;;;;;5.07;2.08;;;;;;;;;;354740;151;863683;-58
2022/02/23 03:32:57;;;;;;;3.56;1.97;;;;;;;;;;360751;147;863652;-58
2022/02/23 03:33:58;;;;;;;3.63;1.74;;;;;;;;;;363439;146;856329;-58
2022/02/23 03:35:00;;;;;;;3.69;1.89;;;;;;;;;;362970;146;864405;-58
2022/02/23 03:36:02;;;;;;;4.67;1.99;;;;;;;;;;363124;147;856559;-56
2022/02/23 03:37:04;;;;;;;3.32;1.91;;;;;;;;;;361830;147;858865;-58
2022/02/23 03:38:05;;;;;;;3.55;1.82;;;;;;;;;;362654;146;856231;-57
2022/02/23 03:39:07;;;;;;;3.84;1.92;;;;;;;;;;362509;147;856124;-57
2022/02/23 03:40:09;;;;;;;4.70;1.82;;;;;;;;;;361490;147;864151;-58
2022/02/23 03:41:11;;;;;;;2.51;1.62;;;;;;;;;;362845;146;856527;-57
2022/02/23 03:42:12;;;;;;;3.39;1.79;;;;;;;;;;361379;146;856374;-57
2022/02/23 03:43:17;;;;;;;4.09;2.12;;;;;;;;;;362971;146;863674;-58
2022/02/23 03:44:17;;;;;;;5.17;1.93;;;;;;;;;;361009;147;856312;-57
2022/02/23 03:45:19;;;;;;;3.21;1.77;;;;;;;;;;362472;146;856141;-57
2022/02/23 03:46:21;;;;;;;4.12;1.83;;;;;;;;;;362206;147;856149;-59
2022/02/23 03:47:23;;;;;;;3.55;1.95;;;;;;;;;;361641;147;856058;-58
2022/02/23 03:48:25;;;;;;;3.50;2.07;;;;;;;;;;362729;147;858561;-58
2022/02/23 03:49:28;;;;;;;2.30;1.83;;;;;;;;;;363072;147;857120;-58
2022/02/23 03:50:29;;;;;;;7.14;2.61;;;;;;;;;;362019;147;864185;-58
2022/02/23 03:51:31;;;;;;;2.59;1.99;;;;;;;;;;361602;147;856713;-58
2022/02/23 03:52:32;;;;;;;6.49;2.29;;;;;;;;;;363643;146;856109;-58
2022/02/23 03:53:34;;;;;;;4.66;1.76;;;;;;;;;;361717;147;856671;-59
2022/02/23 03:54:35;;;;;;;5.21;1.64;;;;;;;;;;362759;147;859936;-59
2022/02/23 03:55:37;;;;;;;2.27;1.38;;;;;;;;;;361638;146;856961;-57
2022/02/23 03:56:38;;;;;;;1.98;1.18;;;;;;;;;;360641;147;856393;-57
2022/02/23 03:57:40;;;;;;;5.89;2.11;;;;;;;;;;362228;147;864094;-58
2022/02/23 04:10:49;;;;;;;2.70;1.66;;;;;;;2.08;55.60;99612.77;370738;142;880357;-57
2022/02/23 04:11:51;;;;;;;3.45;1.58;;;;;;;;;;351393;151;858165;-57
2022/02/23 04:12:52;;;;;;;2.89;1.60;;;;;;;;;;358917;147;856156;-60
2022/02/23 04:13:54;;;;;;;2.06;1.29;;;;;;;;;;356193;147;856269;-61
2022/02/23 04:14:55;;;;;;;2.31;1.12;;;;;;;;;;357663;147;856221;-57
2022/02/23 04:15:57;;;;;;;1.76;1.26;;;;;;;;;;355727;148;856602;-59
2022/02/23 04:16:58;;;;;;;3.17;1.51;;;;;;;;;;356025;147;856095;-58
2022/02/23 04:18:00;;;;;;;2.57;1.60;;;;;;;;;;355279;147;857951;-56
2022/02/23 04:19:02;;;;;;;3.14;1.71;;;;;;;;;;357233;147;856416;-57
2022/02/23 04:20:04;;;;;;;2.10;1.57;;;;;;;;;;355033;147;863616;-58
2022/02/23 04:21:05;;;;;;;5.17;1.58;;;;;;;;;;356017;147;856939;-60
2022/02/23 04:22:07;;;;;;;3.39;1.51;;;;;;;;;;358287;147;856221;-59
2022/02/23 04:23:08;;;;;;;2.25;1.34;;;;;;;;;;357817;148;857892;-58
2022/02/23 04:24:10;;;;;;;3.59;1.50;;;;;;;;;;358259;147;857314;-59
2022/02/23 04:25:11;;;;;;;2.81;1.61;;;;;;;;;;358214;147;863346;-58
2022/02/23 04:26:14;;;;;;;3.31;1.51;;;;;;;;;;357466;147;856029;-60
2022/02/23 04:27:15;;;;;;;4.07;1.45;;;;;;;;;;357436;148;856096;-59
2022/02/23 04:28:17;;;;;;;3.29;1.70;;;;;;;;;;356509;147;856144;-55
2022/02/23 04:29:18;;;;;;;2.58;1.92;;;;;;;;;;356668;147;856672;-59
2022/02/23 04:30:21;;;;;;;2.64;1.67;;;;;;;;;;355647;147;857473;-57
2022/02/23 04:31:23;;;;;;;2.80;1.84;;;;;;;;;;357461;147;856543;-58
2022/02/23 04:32:24;;;;;;;3.27;1.62;;;;;;;;;;357145;147;863627;-58
2022/02/23 04:33:26;;;;;;;2.96;1.63;;;;;;;;;;357753;147;863948;-59
2022/02/23 04:34:28;;;;;;;3.29;1.44;;;;;;;;;;357356;147;856664;-59
2022/02/23 04:35:29;;;;;;;2.17;1.60;;;;;;;;;;356708;147;863746;-59
2022/02/23 04:36:31;;;;;;;2.55;1.78;;;;;;;;;;356327;147;856284;-60
2022/02/23 04:37:32;;;;;;;3.11;1.72;;;;;;;;;;357054;147;863981;-58
2022/02/23 04:38:34;;;;;;;4.42;1.78;;;;;;;;;;356557;147;859625;-61
2022/02/23 04:39:36;;;;;;;3.27;1.65;;;;;;;;;;355533;148;857628;-58
2022/02/23 04:40:37;;;;;;;3.42;1.74;;;;;;;;;;357617;147;856780;-59
2022/02/23 04:41:39;;;;;;;4.59;1.80;;;;;;;;;;356694;147;858236;-56
2022/02/23 04:42:41;;;;;;;3.81;1.75;;;;;;;;;;357258;148;856203;-56
2022/02/23 04:43:43;;;;;;;2.41;1.57;;;;;;;;;;357391;147;864321;-58
2022/02/23 04:44:44;;;;;;;2.38;1.71;;;;;;;;;;355749;147;857184;-61
2022/02/23 04:45:46;;;;;;;4.74;1.61;;;;;;;;;;357447;147;856706;-56
2022/02/23 04:46:47;;;;;;;4.29;1.83;;;;;;;;;;356136;147;856237;-59
2022/02/23 04:47:49;;;;;;;2.97;1.79;;;;;;;;;;357744;147;856969;-57
2022/02/23 04:48:51;;;;;;;3.29;1.92;;;;;;;;;;356725;147;856276;-55
2022/02/23 04:49:52;;;;;;;2.86;1.57;;;;;;;;;;357415;147;857085;-56
2022/02/23 04:50:54;;;;;;;3.62;1.88;;;;;;;;;;356971;148;863558;-57
2022/02/23 04:51:55;;;;;;;3.06;2.04;;;;;;;;;;356181;148;857207;-59
2022/02/23 04:52:57;;;;;;;3.15;1.59;;;;;;;;;;357810;147;863605;-58
2022/02/23 04:53:59;;;;;;;4.71;2.43;;;;;;;;;;356436;148;864209;-58
2022/02/23 04:55:00;;;;;;;3.17;2.06;;;;;;;;;;356116;148;856708;-58
2022/02/23 04:56:02;;;;;;;4.33;2.15;;;;;;;;;;357116;148;856668;-59
2022/02/23 04:57:04;;;;;;;4.22;2.09;;;;;;;;;;356176;147;857014;-59
2022/02/23 04:58:07;;;;;;;3.59;2.14;;;;;;;;;;357040;147;856763;-58
2022/02/23 04:59:09;;;;;;;3.47;1.91;;;;;;;;;;356823;148;856285;-57
2022/02/23 05:00:11;;;;;;;3.13;2.16;;;;;;;;;;355255;147;856037;-56
2022/02/23 05:01:13;;;;;;;5.03;2.51;;;;;;;;;;355903;148;856593;-55
2022/02/23 05:02:14;;;;;;;3.24;1.88;;;;;;;;;;356980;148;856189;-56
2022/02/23 05:03:16;;;;;;;4.77;3.17;;;;;;;;;;358023;147;860687;-58
2022/02/23 05:04:20;;;;;;;4.94;2.73;;;;;;;;;;356938;147;863755;-57
2022/02/23 05:05:21;;;;;;;4.62;2.63;;;;;;;;;;357426;147;857328;-56
2022/02/23 05:06:23;;;;;;;4.96;2.66;;;;;;;;;;357879;147;856104;-58
2022/02/23 05:07:26;;;;;;;5.06;2.99;;;;;;;;;;357241;147;856050;-59
2022/02/23 05:08:27;;;;;;;5.45;3.16;;;;;;;;;;356809;147;857086;-57
2022/02/23 05:09:29;;;;;;;5.21;3.08;;;;;;;;;;355935;147;856191;-57
2022/02/23 05:10:30;;;;;;;8.69;3.84;;;;;;;;;;355977;147;864171;-56
2022/02/23 05:11:32;;;;;;;8.65;3.99;;;;;;;;;;355403;147;863776;-58
2022/02/23 05:12:34;;;;;;;10.59;3.92;;;;;;;;;;355944;148;857004;-63
2022/02/23 05:13:35;;;;;;;11.63;4.65;;;;;;;;;;356806;148;856694;-56
2022/02/23 05:14:37;;;;;;;6.85;3.88;;;;;;;;;;357042;147;856814;-58
2022/02/23 05:15:39;;;;;;;13.28;4.95;;;;;;;;;;356772;147;856701;-59
2022/02/23 05:16:40;;;;;;;9.69;4.58;;;;;;;;;;356871;148;856797;-58
2022/02/23 05:17:42;;;;;;;6.49;4.04;;;;;;;;;;356785;148;863856;-58
2022/02/23 05:18:43;;;;;;;6.99;4.09;;;;;;;;;;356970;147;858837;-58
2022/02/23 05:19:45;;;;;;;8.19;4.46;;;;;;;;;;357700;147;857616;-60
2022/02/23 05:20:47;;;;;;;10.95;4.80;;;;;;;;;;357174;148;856405;-58
2022/02/23 05:21:48;;;;;;;9.70;4.50;;;;;;;;;;356817;148;856481;-58
2022/02/23 05:34:47;;;;;;;8.38;4.11;;;;;;;0.62;61.78;99701.88;371864;141;873998;-60
2022/02/23 05:35:49;;;;;;;7.46;3.97;;;;;;;0.56;61.62;99717.86;368289;144;857579;-60
2022/02/23 05:36:51;;;;;;;9.79;4.09;;;;;;;0.60;61.45;99713.70;367377;144;857037;-59
2022/02/23 05:37:53;;;;;;;7.17;4.56;;;;;;;0.62;61.40;99716.31;366354;144;856088;-59
2022/02/23 05:38:54;;;;;;;7.69;3.71;;;;;;;0.62;61.27;99718.86;366366;144;863666;-59
2022/02/23 05:39:56;;;;;;;7.51;4.34;;;;;;;0.63;61.29;99716.34;366204;144;863707;-60
2022/02/23 05:40:58;;;;;;;7.32;3.97;;;;;;;0.66;61.30;99713.03;367485;144;864095;-60
2022/02/23 05:42:00;;;;;;;8.25;4.03;;;;;;;0.68;61.37;99719.03;366619;144;856265;-60
2022/02/23 05:43:02;;;;;;;9.03;3.98;;;;;;;;;;366154;144;856683;-60
2022/02/23 05:44:04;;;;;;;8.35;3.55;;;;;;;;;;367327;144;864039;-60
2022/02/23 05:45:06;;;;;;;6.25;3.83;;;;;;;;;;366930;144;856952;-60
2022/02/23 05:46:08;;;;;;;5.29;3.42;;;;;;;;;;367536;144;856352;-61
2022/02/23 05:47:10;;;;;;;6.31;3.24;;;;;;;;;;366383;144;861418;-60
2022/02/23 05:48:12;;;;;;;4.99;3.26;;;;;;;;;;366194;144;864404;-60
2022/02/23 05:49:14;;;;;;;7.58;3.39;;;;;;;;;;367067;144;856261;-59
2022/02/23 05:50:16;;;;;;;7.15;3.59;;;;;;;;;;368379;144;857391;-60
2022/02/23 05:51:27;;;;;;;5.34;3.34;;;;;;;;;;366726;144;856349;-58
2022/02/23 05:52:28;;;;;;;7.11;3.57;;;;;;;;;;366227;144;856614;-58
2022/02/23 05:53:30;;;;;;;6.56;3.49;;;;;;;;;;362711;144;856928;-59
2022/02/23 05:54:32;;;;;;;8.73;3.61;;;;;;;;;;361646;146;864430;-59
2022/02/23 05:55:33;;;;;;;6.26;3.50;;;;;;;;;;360762;146;864199;-59
2022/02/23 05:56:35;;;;;;;6.25;3.34;;;;;;;;;;361516;146;863967;-60
2022/02/23 05:57:36;;;;;;;5.21;3.36;;;;;;;;;;361962;146;863823;-59
2022/02/23 05:58:38;;;;;;;8.37;3.81;;;;;;;;;;361766;147;856657;-59
2022/02/23 05:59:40;;;;;;;6.23;3.79;;;;;;;;;;361185;146;856664;-59
2022/02/23 06:00:41;;;;;;;5.86;3.32;;;;;;;;;;361549;146;863938;-59
2022/02/23 06:01:44;;;;;;;6.87;4.00;;;;;;;;;;364183;146;856747;-58
2022/02/23 06:02:45;;;;;;;5.87;3.37;;;;;;;;;;361577;147;856446;-61
2022/02/23 06:03:47;;;;;;;5.34;2.53;;;;;;;;;;361922;147;856535;-60
2022/02/23 06:04:49;;;;;;;7.44;3.47;;;;;;;;;;360866;147;863721;-60
2022/02/23 06:05:50;;;;;;;6.14;3.23;;;;;;;;;;362065;146;863778;-60
2022/02/23 06:06:52;;;;;;;6.43;3.59;;;;;;;;;;361647;147;856239;-60
2022/02/23 06:07:57;;;;;;;6.34;3.31;;;;;;;;;;359982;147;863825;-60
2022/02/23 06:08:57;;;;;;;4.64;2.83;;;;;;;;;;361317;146;863861;-59
2022/02/23 06:09:58;;;;;;;4.61;3.15;;;;;;;;;;362020;146;856504;-60
2022/02/23 06:11:00;;;;;;;4.94;2.96;;;;;;;;;;360321;146;863891;-60
2022/02/23 06:12:02;;;;;;;8.04;3.83;;;;;;;;;;362887;147;856789;-60
2022/02/23 06:13:03;;;;;;;5.77;3.31;;;;;;;;;;361591;147;857174;-59
2022/02/23 06:14:05;;;;;;;5.98;3.30;;;;;;;;;;362605;146;864568;-60
2022/02/23 06:15:07;;;;;;;5.59;3.43;;;;;;;;;;363425;147;863723;-59
2022/02/23 06:16:09;;;;;;;6.48;3.39;;;;;;;;;;361358;147;856562;-60
2022/02/23 06:17:11;;;;;;;5.31;2.86;;;;;;;;;;360249;146;856886;-60
2022/02/23 06:18:12;;;;;;;5.54;3.16;;;;;;;;;;362147;146;864072;-60
2022/02/23 06:19:14;;;;;;;3.89;2.61;;;;;;;;;;362803;147;863724;-61
2022/02/23 06:20:16;;;;;;;5.34;2.88;;;;;;;;;;360359;147;863786;-59
2022/02/23 06:21:17;;;;;;;6.33;2.98;;;;;;;;;;361944;146;863703;-60
2022/02/23 06:22:19;;;;;;;4.55;2.75;;;;;;;;;;362809;147;857041;-59
2022/02/23 06:23:21;;;;;;;3.89;2.57;;;;;;;;;;362714;147;856273;-59
2022/02/23 06:24:23;;;;;;;5.31;2.77;;;;;;;;;;355552;149;857066;-59
2022/02/23 06:25:24;;;;;;;6.06;2.72;;;;;;;;;;362571;146;856844;-60